Nor'easter — V7LP7 — position and weather

sailwx.info

Track history (hours):
 
Tides and Currents Weather Stations Pressure Air Temp Water Temp Dewpoint Dewpoint Depression Visibility Wind Speed Wind Dir Waves Ship Positions

Nor'easter

Last reported at 2017-Dec-17 12:01 UTC. Time now 2017-Dec-17 12:08 UTC.
Position N 42°27' W 070°47'.

Length 184 m; draft 10.4 m.

Type: Ship. MMSI: 538002783.

Date/timePositionNaut miles runAvg speedWind from/ knotsBaromVisibWave heightAir tempDewpointWater temp
2017-Dec-17 12:01N 42°27' W 070°47'0 0.3
2017-Dec-17 11:30N 42°27' W 070°47'1 1.0
2017-Dec-17 11:00N 42°27' W 070°46'1 2.5
2017-Dec-17 10:31N 42°26' W 070°46'0 0.5
2017-Dec-17 10:00N 42°26' W 070°46'2 4.6
2017-Dec-17 09:31N 42°28' W 070°44'612.7
2017-Dec-17 09:00N 42°31' W 070°37'713.3
2017-Dec-17 08:31N 42°35' W 070°29'713.6
2017-Dec-17 08:01N 42°39' W 070°22'713.6
2017-Dec-17 07:31N 42°42' W 070°14'713.6
2017-Dec-17 07:00N 42°46' W 070°06'713.5
2017-Dec-17 06:30N 42°50' W 069°59'  
2017-Dec-13 19:49N 42°35' W 070°04'411.9
2017-Dec-13 19:30N 42°32' W 070°09'611.9
2017-Dec-13 19:00N 42°29' W 070°15'612.1
2017-Dec-13 18:30N 42°26' W 070°22'612.2
2017-Dec-13 18:00N 42°22' W 070°29'611.4
2017-Dec-13 17:30N 42°17' W 070°30'611.5
2017-Dec-13 17:00N 42°11' W 070°30'611.1
2017-Dec-13 16:30N 42°05' W 070°30'57 9.4
2017-Dec-13 10:25N 41°23' W 071°21'126 9.9
2017-Dec-12 21:40N 40°28' W 073°52'2 9.6
2017-Dec-12 21:26N 40°29' W 073°54'510.6
2017-Dec-12 21:00N 40°31' W 073°59'510.7
2017-Dec-12 20:30N 40°36' W 074°03'4 7.6
2017-Dec-12 20:00N 40°39' W 074°05'0 0.2
2017-Dec-12 19:29N 40°39' W 074°05'0 0.0
2017-Dec-12 18:58N 40°39' W 074°05'0 0.0
2017-Dec-12 18:26N 40°39' W 074°05'0 0.0
2017-Dec-12 17:58N 40°39' W 074°05'0 0.0
2017-Dec-12 17:26N 40°39' W 074°05'0 0.0
2017-Dec-12 16:58N 40°39' W 074°05'0 0.0
2017-Dec-12 16:29N 40°39' W 074°05'0 0.0
2017-Dec-12 15:52N 40°39' W 074°05'0 0.0
2017-Dec-12 15:22N 40°39' W 074°05'0 0.0
2017-Dec-12 14:53N 40°39' W 074°05'0 0.0
2017-Dec-12 14:29N 40°39' W 074°05'0 0.0
2017-Dec-12 13:53N 40°39' W 074°05'0 0.0
2017-Dec-12 13:23N 40°39' W 074°05'0 0.0
2017-Dec-12 12:59N 40°39' W 074°05'0 0.0
2017-Dec-12 12:10N 40°39' W 074°05'0 0.0
2017-Dec-12 11:59N 40°39' W 074°05'0 0.0
2017-Dec-12 11:19N 40°39' W 074°05'0 0.0
2017-Dec-12 10:55N 40°39' W 074°05'0 0.0
2017-Dec-12 10:25N 40°39' W 074°05'0 0.0
2017-Dec-12 09:59N 40°39' W 074°05'0 0.0
2017-Dec-12 09:29N 40°39' W 074°05'0 0.0
2017-Dec-12 08:56N 40°39' W 074°05'0 0.0
2017-Dec-12 08:29N 40°39' W 074°05'0 0.0
2017-Dec-12 07:58N 40°39' W 074°05'0 0.0
2017-Dec-12 07:28N 40°39' W 074°05'0 0.0
2017-Dec-12 06:59N 40°39' W 074°05'0 0.0
2017-Dec-12 06:26N 40°39' W 074°05'0 0.0
2017-Dec-12 05:58N 40°39' W 074°05'0 0.0
2017-Dec-12 05:29N 40°39' W 074°05'0 0.0
2017-Dec-12 04:56N 40°39' W 074°05'0 0.0
2017-Dec-12 04:29N 40°39' W 074°05'0 0.0
2017-Dec-12 03:59N 40°39' W 074°05'0 0.0
2017-Dec-12 03:25N 40°39' W 074°05'0 0.0
2017-Dec-12 02:40N 40°39' W 074°05'0 0.0
2017-Dec-12 02:25N 40°39' W 074°05'0 0.0
2017-Dec-12 01:58N 40°39' W 074°05'0 0.0
2017-Dec-12 01:17N 40°39' W 074°05'0 0.0
2017-Dec-12 00:58N 40°39' W 074°05'0 0.0
2017-Dec-12 00:29N 40°39' W 074°05'0 0.0
2017-Dec-11 23:59N 40°39' W 074°05'0 0.0
2017-Dec-11 23:26N 40°39' W 074°05'0 0.0
2017-Dec-11 22:59N 40°39' W 074°05'0 0.0
2017-Dec-11 22:29N 40°39' W 074°05'0 0.0
2017-Dec-11 21:59N 40°39' W 074°05'0 0.0
2017-Dec-11 21:23N 40°39' W 074°05'0 0.0
2017-Dec-11 20:50N 40°39' W 074°05'0 0.0
2017-Dec-11 20:22N 40°39' W 074°05'0 0.0
2017-Dec-11 19:58N 40°39' W 074°05'0 0.7
2017-Dec-11 19:30N 40°39' W 074°05'2 4.6
2017-Dec-11 19:00N 40°37' W 074°03'4 7.9
2017-Dec-11 18:30N 40°33' W 074°02'4 8.4
2017-Dec-11 18:00N 40°30' W 073°58'5 9.6
2017-Dec-11 17:30N 40°28' W 073°52'3 6.6
2017-Dec-11 17:00N 40°27' W 073°48'3 6.0
2017-Dec-11 16:29N 40°28' W 073°44'4 7.6
2017-Dec-11 16:00N 40°29' W 073°40'1 1.4
2017-Dec-11 15:11N 40°30' W 073°38'0 0.0
2017-Dec-11 14:59N 40°30' W 073°38'0 0.0
2017-Dec-11 12:05N 40°30' W 073°38'0 0.0
2017-Dec-11 11:47N 40°30' W 073°38'0 0.0
2017-Dec-11 11:29N 40°30' W 073°38'0 0.2
2017-Dec-11 11:00N 40°30' W 073°38'4 6.9
2017-Dec-11 10:25N 40°29' W 073°33'  
Track history (hours):
 
Tides and Currents Weather Stations Pressure Air Temp Water Temp Dewpoint Dewpoint Depression Visibility Wind Speed Wind Dir Waves Ship Positions

Nor'easter

Last reported at 2017-Dec-17 12:01 UTC. Time now 2017-Dec-17 12:08 UTC.
Position N 42°27' W 070°47'.

Length 184 m; draft 10.4 m.

Type: Ship. MMSI: 538002783.

Date/timePositionNaut miles runAvg speedWind from/ knotsBaromVisibWave heightAir tempDewpointWater temp
2017-Dec-17 12:01N 42°27' W 070°47'0 0.3
2017-Dec-17 11:30N 42°27' W 070°47'1 1.0
2017-Dec-17 11:00N 42°27' W 070°46'1 2.5
2017-Dec-17 10:31N 42°26' W 070°46'0 0.5
2017-Dec-17 10:00N 42°26' W 070°46'2 4.6
2017-Dec-17 09:31N 42°28' W 070°44'612.7
2017-Dec-17 09:00N 42°31' W 070°37'713.3
2017-Dec-17 08:31N 42°35' W 070°29'713.6
2017-Dec-17 08:01N 42°39' W 070°22'713.6
2017-Dec-17 07:31N 42°42' W 070°14'713.6
2017-Dec-17 07:00N 42°46' W 070°06'713.5
2017-Dec-17 06:30N 42°50' W 069°59'  
2017-Dec-13 19:49N 42°35' W 070°04'411.9
2017-Dec-13 19:30N 42°32' W 070°09'611.9
2017-Dec-13 19:00N 42°29' W 070°15'612.1
2017-Dec-13 18:30N 42°26' W 070°22'612.2
2017-Dec-13 18:00N 42°22' W 070°29'611.4
2017-Dec-13 17:30N 42°17' W 070°30'611.5
2017-Dec-13 17:00N 42°11' W 070°30'611.1
2017-Dec-13 16:30N 42°05' W 070°30'57 9.4
2017-Dec-13 10:25N 41°23' W 071°21'126 9.9
2017-Dec-12 21:40N 40°28' W 073°52'2 9.6
2017-Dec-12 21:26N 40°29' W 073°54'510.6
2017-Dec-12 21:00N 40°31' W 073°59'510.7
2017-Dec-12 20:30N 40°36' W 074°03'4 7.6
2017-Dec-12 20:00N 40°39' W 074°05'0 0.2
2017-Dec-12 19:29N 40°39' W 074°05'0 0.0
2017-Dec-12 18:58N 40°39' W 074°05'0 0.0
2017-Dec-12 18:26N 40°39' W 074°05'0 0.0
2017-Dec-12 17:58N 40°39' W 074°05'0 0.0
2017-Dec-12 17:26N 40°39' W 074°05'0 0.0
2017-Dec-12 16:58N 40°39' W 074°05'0 0.0
2017-Dec-12 16:29N 40°39' W 074°05'0 0.0
2017-Dec-12 15:52N 40°39' W 074°05'0 0.0
2017-Dec-12 15:22N 40°39' W 074°05'0 0.0
2017-Dec-12 14:53N 40°39' W 074°05'0 0.0
2017-Dec-12 14:29N 40°39' W 074°05'0 0.0
2017-Dec-12 13:53N 40°39' W 074°05'0 0.0
2017-Dec-12 13:23N 40°39' W 074°05'0 0.0
2017-Dec-12 12:59N 40°39' W 074°05'0 0.0
2017-Dec-12 12:10N 40°39' W 074°05'0 0.0
2017-Dec-12 11:59N 40°39' W 074°05'0 0.0
2017-Dec-12 11:19N 40°39' W 074°05'0 0.0
2017-Dec-12 10:55N 40°39' W 074°05'0 0.0
2017-Dec-12 10:25N 40°39' W 074°05'0 0.0
2017-Dec-12 09:59N 40°39' W 074°05'0 0.0
2017-Dec-12 09:29N 40°39' W 074°05'0 0.0
2017-Dec-12 08:56N 40°39' W 074°05'0 0.0
2017-Dec-12 08:29N 40°39' W 074°05'0 0.0
2017-Dec-12 07:58N 40°39' W 074°05'0 0.0
2017-Dec-12 07:28N 40°39' W 074°05'0 0.0
2017-Dec-12 06:59N 40°39' W 074°05'0 0.0
2017-Dec-12 06:26N 40°39' W 074°05'0 0.0
2017-Dec-12 05:58N 40°39' W 074°05'0 0.0
2017-Dec-12 05:29N 40°39' W 074°05'0 0.0
2017-Dec-12 04:56N 40°39' W 074°05'0 0.0
2017-Dec-12 04:29N 40°39' W 074°05'0 0.0
2017-Dec-12 03:59N 40°39' W 074°05'0 0.0
2017-Dec-12 03:25N 40°39' W 074°05'0 0.0
2017-Dec-12 02:40N 40°39' W 074°05'0 0.0
2017-Dec-12 02:25N 40°39' W 074°05'0 0.0
2017-Dec-12 01:58N 40°39' W 074°05'0 0.0
2017-Dec-12 01:17N 40°39' W 074°05'0 0.0
2017-Dec-12 00:58N 40°39' W 074°05'0 0.0
2017-Dec-12 00:29N 40°39' W 074°05'0 0.0
2017-Dec-11 23:59N 40°39' W 074°05'0 0.0
2017-Dec-11 23:26N 40°39' W 074°05'0 0.0
2017-Dec-11 22:59N 40°39' W 074°05'0 0.0
2017-Dec-11 22:29N 40°39' W 074°05'0 0.0
2017-Dec-11 21:59N 40°39' W 074°05'0 0.0
2017-Dec-11 21:23N 40°39' W 074°05'0 0.0
2017-Dec-11 20:50N 40°39' W 074°05'0 0.0
2017-Dec-11 20:22N 40°39' W 074°05'0 0.0
2017-Dec-11 19:58N 40°39' W 074°05'0 0.7
2017-Dec-11 19:30N 40°39' W 074°05'2 4.6
2017-Dec-11 19:00N 40°37' W 074°03'4 7.9
2017-Dec-11 18:30N 40°33' W 074°02'4 8.4
2017-Dec-11 18:00N 40°30' W 073°58'5 9.6
2017-Dec-11 17:30N 40°28' W 073°52'3 6.6
2017-Dec-11 17:00N 40°27' W 073°48'3 6.0
2017-Dec-11 16:29N 40°28' W 073°44'4 7.6
2017-Dec-11 16:00N 40°29' W 073°40'1 1.4
2017-Dec-11 15:11N 40°30' W 073°38'0 0.0
2017-Dec-11 14:59N 40°30' W 073°38'0 0.0
2017-Dec-11 12:05N 40°30' W 073°38'0 0.0
2017-Dec-11 11:47N 40°30' W 073°38'0 0.0
2017-Dec-11 11:29N 40°30' W 073°38'0 0.2
2017-Dec-11 11:00N 40°30' W 073°38'4 6.9
2017-Dec-11 10:25N 40°29' W 073°33'  

Dump ship's entire track history